sensor_id;sensor_type;location;lat;lon;timestamp;temperature;humidity
26099;DHT22;13860;52.370;6.764;2023-02-03T00:02:39;9.40;89.60
26099;DHT22;13860;52.370;6.764;2023-02-03T00:05:45;9.40;89.60
26099;DHT22;13860;52.370;6.764;2023-02-03T00:08:52;9.40;89.60
26099;DHT22;13860;52.370;6.764;2023-02-03T00:11:58;9.30;89.60
26099;DHT22;13860;52.370;6.764;2023-02-03T00:15:05;9.40;89.60
26099;DHT22;13860;52.370;6.764;2023-02-03T00:18:09;9.30;89.60
26099;DHT22;13860;52.370;6.764;2023-02-03T00:21:17;9.30;89.60
26099;DHT22;13860;52.370;6.764;2023-02-03T00:24:20;9.30;89.60
26099;DHT22;13860;52.370;6.764;2023-02-03T00:27:26;9.30;89.60
26099;DHT22;13860;52.370;6.764;2023-02-03T00:30:32;9.30;89.60
26099;DHT22;13860;52.370;6.764;2023-02-03T00:33:38;9.30;89.60
26099;DHT22;13860;52.370;6.764;2023-02-03T00:36:44;9.40;89.60
26099;DHT22;13860;52.370;6.764;2023-02-03T00:39:51;9.30;89.60
26099;DHT22;13860;52.370;6.764;2023-02-03T00:42:55;9.30;89.60
26099;DHT22;13860;52.370;6.764;2023-02-03T00:46:01;9.30;89.60
26099;DHT22;13860;52.370;6.764;2023-02-03T00:49:04;9.30;89.60
26099;DHT22;13860;52.370;6.764;2023-02-03T00:52:13;9.30;89.60
26099;DHT22;13860;52.370;6.764;2023-02-03T00:55:17;9.40;89.60
26099;DHT22;13860;52.370;6.764;2023-02-03T00:58:24;9.30;89.60
26099;DHT22;13860;52.370;6.764;2023-02-03T01:01:28;9.30;89.60
26099;DHT22;13860;52.370;6.764;2023-02-03T01:04:34;9.40;89.70
26099;DHT22;13860;52.370;6.764;2023-02-03T01:07:40;9.40;89.70
26099;DHT22;13860;52.370;6.764;2023-02-03T01:10:46;9.40;89.70
26099;DHT22;13860;52.370;6.764;2023-02-03T01:13:50;9.40;89.70
26099;DHT22;13860;52.370;6.764;2023-02-03T01:16:57;9.40;89.70
26099;DHT22;13860;52.370;6.764;2023-02-03T01:20:01;9.40;89.60
26099;DHT22;13860;52.370;6.764;2023-02-03T01:23:09;9.40;89.60
26099;DHT22;13860;52.370;6.764;2023-02-03T01:26:18;9.40;89.60
26099;DHT22;13860;52.370;6.764;2023-02-03T01:29:24;9.40;89.60
26099;DHT22;13860;52.370;6.764;2023-02-03T01:32:28;9.40;89.70
26099;DHT22;13860;52.370;6.764;2023-02-03T01:35:33;9.50;89.70
26099;DHT22;13860;52.370;6.764;2023-02-03T01:38:40;9.50;89.60
26099;DHT22;13860;52.370;6.764;2023-02-03T01:41:49;9.50;89.60
26099;DHT22;13860;52.370;6.764;2023-02-03T01:44:52;9.40;89.50
26099;DHT22;13860;52.370;6.764;2023-02-03T01:47:59;9.50;89.60
26099;DHT22;13860;52.370;6.764;2023-02-03T01:51:04;9.50;89.60
26099;DHT22;13860;52.370;6.764;2023-02-03T01:54:14;9.50;89.60
26099;DHT22;13860;52.370;6.764;2023-02-03T01:57:26;9.50;89.60
26099;DHT22;13860;52.370;6.764;2023-02-03T02:00:32;9.50;89.60
26099;DHT22;13860;52.370;6.764;2023-02-03T02:03:39;9.50;89.50
26099;DHT22;13860;52.370;6.764;2023-02-03T02:06:46;9.50;89.60
26099;DHT22;13860;52.370;6.764;2023-02-03T02:09:54;9.50;89.50
26099;DHT22;13860;52.370;6.764;2023-02-03T02:13:01;9.50;89.50
26099;DHT22;13860;52.370;6.764;2023-02-03T02:16:09;9.50;90.00
26099;DHT22;13860;52.370;6.764;2023-02-03T02:19:35;9.50;89.50
26099;DHT22;13860;52.370;6.764;2023-02-03T02:22:59;9.50;89.50
26099;DHT22;13860;52.370;6.764;2023-02-03T02:30:12;9.50;89.50
26099;DHT22;13860;52.370;6.764;2023-02-03T02:33:33;9.50;89.50
26099;DHT22;13860;52.370;6.764;2023-02-03T02:36:46;9.50;89.50
26099;DHT22;13860;52.370;6.764;2023-02-03T02:40:01;9.50;89.40
26099;DHT22;13860;52.370;6.764;2023-02-03T02:43:11;9.50;89.40
26099;DHT22;13860;52.370;6.764;2023-02-03T02:46:23;9.50;89.40
26099;DHT22;13860;52.370;6.764;2023-02-03T02:49:34;9.50;89.40
26099;DHT22;13860;52.370;6.764;2023-02-03T02:52:43;9.50;89.50
26099;DHT22;13860;52.370;6.764;2023-02-03T02:55:51;9.50;89.40
26099;DHT22;13860;52.370;6.764;2023-02-03T02:58:59;9.50;89.40
26099;DHT22;13860;52.370;6.764;2023-02-03T03:02:04;9.50;89.40
26099;DHT22;13860;52.370;6.764;2023-02-03T03:05:12;9.50;89.40
26099;DHT22;13860;52.370;6.764;2023-02-03T03:08:24;9.50;89.30
26099;DHT22;13860;52.370;6.764;2023-02-03T03:11:38;9.50;89.30
26099;DHT22;13860;52.370;6.764;2023-02-03T03:14:46;9.50;89.30
26099;DHT22;13860;52.370;6.764;2023-02-03T03:17:56;9.50;89.30
26099;DHT22;13860;52.370;6.764;2023-02-03T03:21:03;9.50;89.30
26099;DHT22;13860;52.370;6.764;2023-02-03T03:24:14;9.50;89.30
26099;DHT22;13860;52.370;6.764;2023-02-03T03:27:21;9.50;89.30
26099;DHT22;13860;52.370;6.764;2023-02-03T03:30:32;9.50;89.30
26099;DHT22;13860;52.370;6.764;2023-02-03T03:33:37;9.50;89.20
26099;DHT22;13860;52.370;6.764;2023-02-03T03:36:48;9.50;89.20
26099;DHT22;13860;52.370;6.764;2023-02-03T03:39:55;9.50;89.20
26099;DHT22;13860;52.370;6.764;2023-02-03T03:43:07;9.50;89.20
26099;DHT22;13860;52.370;6.764;2023-02-03T03:46:16;9.50;89.10
26099;DHT22;13860;52.370;6.764;2023-02-03T03:49:26;9.50;89.10
26099;DHT22;13860;52.370;6.764;2023-02-03T03:52:35;9.50;89.20
26099;DHT22;13860;52.370;6.764;2023-02-03T03:55:44;9.50;89.10
26099;DHT22;13860;52.370;6.764;2023-02-03T03:58:51;9.50;89.10
26099;DHT22;13860;52.370;6.764;2023-02-03T04:01:58;9.50;89.10
26099;DHT22;13860;52.370;6.764;2023-02-03T04:05:06;9.50;89.10
26099;DHT22;13860;52.370;6.764;2023-02-03T04:08:15;9.50;89.10
26099;DHT22;13860;52.370;6.764;2023-02-03T04:11:18;9.50;89.10
26099;DHT22;13860;52.370;6.764;2023-02-03T04:14:37;9.50;89.10
26099;DHT22;13860;52.370;6.764;2023-02-03T04:17:41;9.50;89.00
26099;DHT22;13860;52.370;6.764;2023-02-03T04:20:47;9.50;89.00
26099;DHT22;13860;52.370;6.764;2023-02-03T04:23:53;9.50;89.00
26099;DHT22;13860;52.370;6.764;2023-02-03T04:26:59;9.50;89.00
26099;DHT22;13860;52.370;6.764;2023-02-03T04:30:08;9.50;88.90
26099;DHT22;13860;52.370;6.764;2023-02-03T04:33:14;9.50;88.90
26099;DHT22;13860;52.370;6.764;2023-02-03T04:36:18;9.50;88.90
26099;DHT22;13860;52.370;6.764;2023-02-03T04:39:26;9.50;88.90
26099;DHT22;13860;52.370;6.764;2023-02-03T04:42:29;9.50;88.90
26099;DHT22;13860;52.370;6.764;2023-02-03T04:45:36;9.50;88.90
26099;DHT22;13860;52.370;6.764;2023-02-03T04:48:40;9.50;88.90
26099;DHT22;13860;52.370;6.764;2023-02-03T04:51:47;9.50;88.90
26099;DHT22;13860;52.370;6.764;2023-02-03T04:54:54;9.50;88.90
26099;DHT22;13860;52.370;6.764;2023-02-03T04:58:00;9.60;88.90
26099;DHT22;13860;52.370;6.764;2023-02-03T05:01:07;9.50;88.80
26099;DHT22;13860;52.370;6.764;2023-02-03T05:04:14;9.60;88.80
26099;DHT22;13860;52.370;6.764;2023-02-03T05:07:17;9.60;88.80
26099;DHT22;13860;52.370;6.764;2023-02-03T05:10:25;9.60;88.70
26099;DHT22;13860;52.370;6.764;2023-02-03T05:13:29;9.60;88.70
26099;DHT22;13860;52.370;6.764;2023-02-03T05:16:35;9.60;88.70
26099;DHT22;13860;52.370;6.764;2023-02-03T05:19:39;9.60;88.70
26099;DHT22;13860;52.370;6.764;2023-02-03T05:22:45;9.60;88.70
26099;DHT22;13860;52.370;6.764;2023-02-03T05:25:50;9.60;88.70
26099;DHT22;13860;52.370;6.764;2023-02-03T05:28:56;9.60;88.70
26099;DHT22;13860;52.370;6.764;2023-02-03T05:32:00;9.60;88.70
26099;DHT22;13860;52.370;6.764;2023-02-03T05:35:07;9.60;88.60
26099;DHT22;13860;52.370;6.764;2023-02-03T05:38:11;9.60;88.60
26099;DHT22;13860;52.370;6.764;2023-02-03T05:41:18;9.70;88.70
26099;DHT22;13860;52.370;6.764;2023-02-03T05:44:35;9.70;88.70
26099;DHT22;13860;52.370;6.764;2023-02-03T05:47:41;9.70;88.60
26099;DHT22;13860;52.370;6.764;2023-02-03T05:50:45;9.70;88.60
26099;DHT22;13860;52.370;6.764;2023-02-03T05:53:51;9.70;88.60
26099;DHT22;13860;52.370;6.764;2023-02-03T05:56:57;9.80;88.50
26099;DHT22;13860;52.370;6.764;2023-02-03T06:00:04;9.80;88.60
26099;DHT22;13860;52.370;6.764;2023-02-03T06:03:12;9.80;88.60
26099;DHT22;13860;52.370;6.764;2023-02-03T06:06:19;9.80;88.50
26099;DHT22;13860;52.370;6.764;2023-02-03T06:09:22;9.80;88.50
26099;DHT22;13860;52.370;6.764;2023-02-03T06:12:30;9.80;88.50
26099;DHT22;13860;52.370;6.764;2023-02-03T06:15:35;9.80;88.40
26099;DHT22;13860;52.370;6.764;2023-02-03T06:18:40;9.80;88.40
26099;DHT22;13860;52.370;6.764;2023-02-03T06:21:44;9.90;88.50
26099;DHT22;13860;52.370;6.764;2023-02-03T06:24:50;9.90;88.50
26099;DHT22;13860;52.370;6.764;2023-02-03T06:27:56;9.90;88.40
26099;DHT22;13860;52.370;6.764;2023-02-03T06:31:02;9.90;89.00
26099;DHT22;13860;52.370;6.764;2023-02-03T06:34:06;9.90;88.40
26099;DHT22;13860;52.370;6.764;2023-02-03T06:37:12;9.90;88.40
26099;DHT22;13860;52.370;6.764;2023-02-03T06:40:15;9.90;88.40
26099;DHT22;13860;52.370;6.764;2023-02-03T06:43:23;10.00;88.40
26099;DHT22;13860;52.370;6.764;2023-02-03T06:46:27;10.00;88.30
26099;DHT22;13860;52.370;6.764;2023-02-03T06:49:33;10.00;88.30
26099;DHT22;13860;52.370;6.764;2023-02-03T06:52:37;10.00;88.30
26099;DHT22;13860;52.370;6.764;2023-02-03T06:55:43;10.00;88.30
26099;DHT22;13860;52.370;6.764;2023-02-03T06:58:50;10.00;88.20
26099;DHT22;13860;52.370;6.764;2023-02-03T07:01:56;10.10;88.30
26099;DHT22;13860;52.370;6.764;2023-02-03T07:04:59;10.00;88.20
26099;DHT22;13860;52.370;6.764;2023-02-03T07:08:05;10.10;88.20
26099;DHT22;13860;52.370;6.764;2023-02-03T07:11:09;10.10;88.20
26099;DHT22;13860;52.370;6.764;2023-02-03T07:14:17;10.10;88.20
26099;DHT22;13860;52.370;6.764;2023-02-03T07:17:21;10.10;88.10
26099;DHT22;13860;52.370;6.764;2023-02-03T07:20:27;10.10;88.10
26099;DHT22;13860;52.370;6.764;2023-02-03T07:23:33;10.10;88.10
26099;DHT22;13860;52.370;6.764;2023-02-03T07:26:39;10.10;88.10
26099;DHT22;13860;52.370;6.764;2023-02-03T07:29:44;10.10;88.10
26099;DHT22;13860;52.370;6.764;2023-02-03T07:32:52;10.10;88.00
26099;DHT22;13860;52.370;6.764;2023-02-03T07:35:58;10.10;88.00
26099;DHT22;13860;52.370;6.764;2023-02-03T07:39:04;10.20;88.10
26099;DHT22;13860;52.370;6.764;2023-02-03T07:42:08;10.20;88.10
26099;DHT22;13860;52.370;6.764;2023-02-03T07:45:23;10.20;88.00
26099;DHT22;13860;52.370;6.764;2023-02-03T07:48:27;10.20;88.00
26099;DHT22;13860;52.370;6.764;2023-02-03T07:51:33;10.20;88.00
26099;DHT22;13860;52.370;6.764;2023-02-03T07:54:36;10.20;88.00
26099;DHT22;13860;52.370;6.764;2023-02-03T07:57:42;10.20;88.00
26099;DHT22;13860;52.370;6.764;2023-02-03T08:00:48;10.20;88.00
26099;DHT22;13860;52.370;6.764;2023-02-03T08:03:54;10.20;88.00
26099;DHT22;13860;52.370;6.764;2023-02-03T08:06:58;10.20;88.00
26099;DHT22;13860;52.370;6.764;2023-02-03T08:10:04;10.20;87.90
26099;DHT22;13860;52.370;6.764;2023-02-03T08:13:08;10.20;87.90
26099;DHT22;13860;52.370;6.764;2023-02-03T08:16:16;10.20;87.90
26099;DHT22;13860;52.370;6.764;2023-02-03T08:19:20;10.20;87.90
26099;DHT22;13860;52.370;6.764;2023-02-03T08:22:29;10.20;87.80
26099;DHT22;13860;52.370;6.764;2023-02-03T08:25:33;10.30;87.90
26099;DHT22;13860;52.370;6.764;2023-02-03T08:28:39;10.30;87.90
26099;DHT22;13860;52.370;6.764;2023-02-03T08:31:45;10.30;87.90
26099;DHT22;13860;52.370;6.764;2023-02-03T08:34:52;10.30;87.90
26099;DHT22;13860;52.370;6.764;2023-02-03T08:37:56;10.30;87.90
26099;DHT22;13860;52.370;6.764;2023-02-03T08:41:08;10.30;87.90
26099;DHT22;13860;52.370;6.764;2023-02-03T08:44:12;10.30;87.80
26099;DHT22;13860;52.370;6.764;2023-02-03T08:47:21;10.30;87.80
26099;DHT22;13860;52.370;6.764;2023-02-03T08:50:25;10.30;87.80
26099;DHT22;13860;52.370;6.764;2023-02-03T08:53:31;10.30;87.80
26099;DHT22;13860;52.370;6.764;2023-02-03T08:56:35;10.40;87.80
26099;DHT22;13860;52.370;6.764;2023-02-03T08:59:42;10.40;87.80
26099;DHT22;13860;52.370;6.764;2023-02-03T09:02:48;10.40;87.80
26099;DHT22;13860;52.370;6.764;2023-02-03T09:05:54;10.40;87.80
26099;DHT22;13860;52.370;6.764;2023-02-03T09:08:57;10.40;87.80
26099;DHT22;13860;52.370;6.764;2023-02-03T09:12:05;10.40;88.40
26099;DHT22;13860;52.370;6.764;2023-02-03T09:15:09;10.40;87.80
26099;DHT22;13860;52.370;6.764;2023-02-03T09:18:17;10.40;87.80
26099;DHT22;13860;52.370;6.764;2023-02-03T09:21:21;10.40;87.70
26099;DHT22;13860;52.370;6.764;2023-02-03T09:24:43;10.40;87.70
26099;DHT22;13860;52.370;6.764;2023-02-03T09:27:49;10.50;87.80
26099;DHT22;13860;52.370;6.764;2023-02-03T09:30:58;10.50;87.80
26099;DHT22;13860;52.370;6.764;2023-02-03T09:34:04;10.50;87.80
26099;DHT22;13860;52.370;6.764;2023-02-03T09:37:10;10.50;87.70
26099;DHT22;13860;52.370;6.764;2023-02-03T09:40:17;10.50;87.70
26099;DHT22;13860;52.370;6.764;2023-02-03T09:43:31;10.50;87.70
26099;DHT22;13860;52.370;6.764;2023-02-03T09:46:41;10.50;87.60
26099;DHT22;13860;52.370;6.764;2023-02-03T09:49:52;10.50;87.70
26099;DHT22;13860;52.370;6.764;2023-02-03T09:52:56;10.60;87.70
26099;DHT22;13860;52.370;6.764;2023-02-03T09:56:03;10.60;87.70
26099;DHT22;13860;52.370;6.764;2023-02-03T09:59:08;10.60;87.70
26099;DHT22;13860;52.370;6.764;2023-02-03T10:02:42;10.60;87.70
26099;DHT22;13860;52.370;6.764;2023-02-03T10:06:11;10.60;87.60
26099;DHT22;13860;52.370;6.764;2023-02-03T10:09:29;10.60;87.60
26099;DHT22;13860;52.370;6.764;2023-02-03T10:12:49;10.60;87.60
26099;DHT22;13860;52.370;6.764;2023-02-03T10:16:11;10.70;87.70
26099;DHT22;13860;52.370;6.764;2023-02-03T10:19:24;10.70;87.60
26099;DHT22;13860;52.370;6.764;2023-02-03T10:22:36;10.70;87.60
26099;DHT22;13860;52.370;6.764;2023-02-03T10:25:46;10.70;87.60
26099;DHT22;13860;52.370;6.764;2023-02-03T10:29:05;10.70;87.60
26099;DHT22;13860;52.370;6.764;2023-02-03T10:32:11;10.70;87.50
26099;DHT22;13860;52.370;6.764;2023-02-03T10:35:17;10.70;87.60
26099;DHT22;13860;52.370;6.764;2023-02-03T10:38:35;10.70;87.50
26099;DHT22;13860;52.370;6.764;2023-02-03T10:41:43;10.80;87.60
26099;DHT22;13860;52.370;6.764;2023-02-03T10:44:49;10.80;87.50
26099;DHT22;13860;52.370;6.764;2023-02-03T10:47:58;10.70;87.50
26099;DHT22;13860;52.370;6.764;2023-02-03T10:51:03;10.80;87.50
26099;DHT22;13860;52.370;6.764;2023-02-03T10:54:26;10.70;87.50
26099;DHT22;13860;52.370;6.764;2023-02-03T10:57:33;10.70;87.50
26099;DHT22;13860;52.370;6.764;2023-02-03T11:00:42;10.70;87.50
26099;DHT22;13860;52.370;6.764;2023-02-03T11:03:58;10.70;87.50
26099;DHT22;13860;52.370;6.764;2023-02-03T11:07:06;10.70;87.50
26099;DHT22;13860;52.370;6.764;2023-02-03T11:10:31;10.70;87.60
26099;DHT22;13860;52.370;6.764;2023-02-03T11:13:38;10.70;87.50
26099;DHT22;13860;52.370;6.764;2023-02-03T11:16:42;10.70;87.60
26099;DHT22;13860;52.370;6.764;2023-02-03T11:19:51;10.70;87.60
26099;DHT22;13860;52.370;6.764;2023-02-03T11:22:55;10.60;87.40
26099;DHT22;13860;52.370;6.764;2023-02-03T11:26:11;10.60;87.50
26099;DHT22;13860;52.370;6.764;2023-02-03T11:29:20;10.60;87.60
26099;DHT22;13860;52.370;6.764;2023-02-03T11:32:32;10.60;87.60
26099;DHT22;13860;52.370;6.764;2023-02-03T11:35:36;10.60;87.60
26099;DHT22;13860;52.370;6.764;2023-02-03T11:38:43;10.60;87.60
26099;DHT22;13860;52.370;6.764;2023-02-03T11:41:49;10.60;87.70
26099;DHT22;13860;52.370;6.764;2023-02-03T11:45:12;10.60;87.70
26099;DHT22;13860;52.370;6.764;2023-02-03T11:48:26;10.50;87.60
26099;DHT22;13860;52.370;6.764;2023-02-03T11:51:40;10.50;87.70
26099;DHT22;13860;52.370;6.764;2023-02-03T11:54:51;10.50;87.70
26099;DHT22;13860;52.370;6.764;2023-02-03T11:58:16;10.50;87.70
26099;DHT22;13860;52.370;6.764;2023-02-03T12:08:41;10.50;87.60
26099;DHT22;13860;52.370;6.764;2023-02-03T12:12:32;10.50;87.70
26099;DHT22;13860;52.370;6.764;2023-02-03T12:15:55;10.50;87.60
26099;DHT22;13860;52.370;6.764;2023-02-03T12:19:10;10.50;87.50
26099;DHT22;13860;52.370;6.764;2023-02-03T12:22:24;10.50;87.50
26099;DHT22;13860;52.370;6.764;2023-02-03T12:25:44;10.50;87.50
26099;DHT22;13860;52.370;6.764;2023-02-03T12:29:00;10.50;87.50
26099;DHT22;13860;52.370;6.764;2023-02-03T12:32:15;10.60;87.50
26099;DHT22;13860;52.370;6.764;2023-02-03T12:35:24;10.60;87.40
26099;DHT22;13860;52.370;6.764;2023-02-03T12:38:37;10.50;87.30
26099;DHT22;13860;52.370;6.764;2023-02-03T12:41:47;10.60;87.30
26099;DHT22;13860;52.370;6.764;2023-02-03T12:44:59;10.60;87.30
26099;DHT22;13860;52.370;6.764;2023-02-03T12:48:10;10.60;87.20
26099;DHT22;13860;52.370;6.764;2023-02-03T12:51:26;10.60;87.20
26099;DHT22;13860;52.370;6.764;2023-02-03T12:54:38;10.60;87.20
26099;DHT22;13860;52.370;6.764;2023-02-03T12:57:51;10.60;87.10
26099;DHT22;13860;52.370;6.764;2023-02-03T13:01:03;10.60;87.10
26099;DHT22;13860;52.370;6.764;2023-02-03T13:04:16;10.50;87.00
26099;DHT22;13860;52.370;6.764;2023-02-03T13:07:24;10.50;87.60
26099;DHT22;13860;52.370;6.764;2023-02-03T13:10:37;10.50;86.90
26099;DHT22;13860;52.370;6.764;2023-02-03T13:13:47;10.50;86.90
26099;DHT22;13860;52.370;6.764;2023-02-03T13:16:59;10.50;86.80
26099;DHT22;13860;52.370;6.764;2023-02-03T13:20:14;10.50;86.80
26099;DHT22;13860;52.370;6.764;2023-02-03T13:23:22;10.50;86.70
26099;DHT22;13860;52.370;6.764;2023-02-03T13:26:58;10.40;86.70
26099;DHT22;13860;52.370;6.764;2023-02-03T13:30:31;10.40;86.60
26099;DHT22;13860;52.370;6.764;2023-02-03T13:40:59;10.30;86.50
26099;DHT22;13860;52.370;6.764;2023-02-03T13:44:11;10.30;86.50
26099;DHT22;13860;52.370;6.764;2023-02-03T13:47:18;10.30;86.40
26099;DHT22;13860;52.370;6.764;2023-02-03T13:50:28;10.30;86.40
26099;DHT22;13860;52.370;6.764;2023-02-03T13:53:38;10.30;86.40
26099;DHT22;13860;52.370;6.764;2023-02-03T13:56:52;10.20;86.20
26099;DHT22;13860;52.370;6.764;2023-02-03T13:59:58;10.20;86.10
26099;DHT22;13860;52.370;6.764;2023-02-03T14:03:14;10.20;86.20
26099;DHT22;13860;52.370;6.764;2023-02-03T14:10:14;10.20;86.00
26099;DHT22;13860;52.370;6.764;2023-02-03T14:13:19;10.10;86.00
26099;DHT22;13860;52.370;6.764;2023-02-03T14:16:26;10.10;86.00
26099;DHT22;13860;52.370;6.764;2023-02-03T14:19:53;10.10;86.00
26099;DHT22;13860;52.370;6.764;2023-02-03T14:23:06;10.00;85.70
26099;DHT22;13860;52.370;6.764;2023-02-03T14:26:23;10.10;85.80
26099;DHT22;13860;52.370;6.764;2023-02-03T14:29:31;10.00;85.70
26099;DHT22;13860;52.370;6.764;2023-02-03T14:32:53;10.00;85.70
26099;DHT22;13860;52.370;6.764;2023-02-03T14:36:00;10.00;85.60
26099;DHT22;13860;52.370;6.764;2023-02-03T14:43:13;9.90;85.50
26099;DHT22;13860;52.370;6.764;2023-02-03T14:50:16;9.90;85.50
26099;DHT22;13860;52.370;6.764;2023-02-03T14:53:34;9.90;85.40
26099;DHT22;13860;52.370;6.764;2023-02-03T14:56:46;9.90;85.50
26099;DHT22;13860;52.370;6.764;2023-02-03T15:00:23;9.80;85.40
26099;DHT22;13860;52.370;6.764;2023-02-03T15:03:30;9.80;85.40
26099;DHT22;13860;52.370;6.764;2023-02-03T15:06:37;9.80;85.40
26099;DHT22;13860;52.370;6.764;2023-02-03T15:09:44;9.80;85.30
26099;DHT22;13860;52.370;6.764;2023-02-03T15:12:53;9.80;85.40
26099;DHT22;13860;52.370;6.764;2023-02-03T15:16:02;9.80;85.60
26099;DHT22;13860;52.370;6.764;2023-02-03T15:19:15;9.80;85.20
26099;DHT22;13860;52.370;6.764;2023-02-03T15:22:24;9.80;85.20
26099;DHT22;13860;52.370;6.764;2023-02-03T15:25:29;9.70;85.10
26099;DHT22;13860;52.370;6.764;2023-02-03T15:28:36;9.70;85.10
26099;DHT22;13860;52.370;6.764;2023-02-03T15:31:43;9.70;85.10
26099;DHT22;13860;52.370;6.764;2023-02-03T15:34:52;9.70;85.00
26099;DHT22;13860;52.370;6.764;2023-02-03T15:37:58;9.70;85.00
26099;DHT22;13860;52.370;6.764;2023-02-03T15:41:10;9.70;84.90
26099;DHT22;13860;52.370;6.764;2023-02-03T15:44:26;9.70;84.90
26099;DHT22;13860;52.370;6.764;2023-02-03T15:47:35;9.70;84.80
26099;DHT22;13860;52.370;6.764;2023-02-03T15:50:42;9.70;84.90
26099;DHT22;13860;52.370;6.764;2023-02-03T15:53:53;9.60;84.80
26099;DHT22;13860;52.370;6.764;2023-02-03T15:57:00;9.60;84.80
26099;DHT22;13860;52.370;6.764;2023-02-03T16:00:17;9.60;85.40
26099;DHT22;13860;52.370;6.764;2023-02-03T16:03:33;9.60;84.70
26099;DHT22;13860;52.370;6.764;2023-02-03T16:06:45;9.60;84.50
26099;DHT22;13860;52.370;6.764;2023-02-03T16:09:51;9.60;84.50
26099;DHT22;13860;52.370;6.764;2023-02-03T16:13:17;9.60;84.50
26099;DHT22;13860;52.370;6.764;2023-02-03T16:16:25;9.60;84.50
26099;DHT22;13860;52.370;6.764;2023-02-03T16:19:34;9.50;84.50
26099;DHT22;13860;52.370;6.764;2023-02-03T16:22:43;9.50;84.40
26099;DHT22;13860;52.370;6.764;2023-02-03T16:26:05;9.50;84.50
26099;DHT22;13860;52.370;6.764;2023-02-03T16:29:11;9.50;84.20
26099;DHT22;13860;52.370;6.764;2023-02-03T16:32:30;9.50;84.30
26099;DHT22;13860;52.370;6.764;2023-02-03T16:35:49;9.50;84.30
26099;DHT22;13860;52.370;6.764;2023-02-03T16:39:10;9.40;84.20
26099;DHT22;13860;52.370;6.764;2023-02-03T16:42:36;9.40;84.20
26099;DHT22;13860;52.370;6.764;2023-02-03T16:45:57;9.40;84.10
26099;DHT22;13860;52.370;6.764;2023-02-03T16:49:14;9.30;84.10
26099;DHT22;13860;52.370;6.764;2023-02-03T16:52:35;9.30;84.00
26099;DHT22;13860;52.370;6.764;2023-02-03T16:55:39;9.30;84.00
26099;DHT22;13860;52.370;6.764;2023-02-03T16:58:45;9.30;84.10
26099;DHT22;13860;52.370;6.764;2023-02-03T17:01:49;9.20;84.00
26099;DHT22;13860;52.370;6.764;2023-02-03T17:04:55;9.20;84.00
26099;DHT22;13860;52.370;6.764;2023-02-03T17:08:00;9.20;83.90
26099;DHT22;13860;52.370;6.764;2023-02-03T17:11:09;9.20;84.00
26099;DHT22;13860;52.370;6.764;2023-02-03T17:14:14;9.10;84.00
26099;DHT22;13860;52.370;6.764;2023-02-03T17:17:20;9.10;84.00
26099;DHT22;13860;52.370;6.764;2023-02-03T17:20:23;9.10;84.00
26099;DHT22;13860;52.370;6.764;2023-02-03T17:23:31;9.00;84.10
26099;DHT22;13860;52.370;6.764;2023-02-03T17:26:35;9.00;84.10
26099;DHT22;13860;52.370;6.764;2023-02-03T17:29:41;8.90;84.00
26099;DHT22;13860;52.370;6.764;2023-02-03T17:32:45;8.90;84.10
26099;DHT22;13860;52.370;6.764;2023-02-03T17:35:59;8.90;84.10
26099;DHT22;13860;52.370;6.764;2023-02-03T17:39:05;8.90;84.10
26099;DHT22;13860;52.370;6.764;2023-02-03T17:42:26;8.90;84.10
26099;DHT22;13860;52.370;6.764;2023-02-03T17:45:45;8.80;84.00
26099;DHT22;13860;52.370;6.764;2023-02-03T17:49:05;8.80;84.00
26099;DHT22;13860;52.370;6.764;2023-02-03T17:52:24;8.80;84.00
26099;DHT22;13860;52.370;6.764;2023-02-03T17:55:47;8.80;84.00
26099;DHT22;13860;52.370;6.764;2023-02-03T17:58:54;8.70;84.00
26099;DHT22;13860;52.370;6.764;2023-02-03T18:02:00;8.70;84.00
26099;DHT22;13860;52.370;6.764;2023-02-03T18:05:05;8.70;84.00
26099;DHT22;13860;52.370;6.764;2023-02-03T18:08:11;8.70;84.00
26099;DHT22;13860;52.370;6.764;2023-02-03T18:11:20;8.60;84.00
26099;DHT22;13860;52.370;6.764;2023-02-03T18:14:26;8.60;84.00
26099;DHT22;13860;52.370;6.764;2023-02-03T18:17:29;8.60;84.10
26099;DHT22;13860;52.370;6.764;2023-02-03T18:20:35;8.60;84.10
26099;DHT22;13860;52.370;6.764;2023-02-03T18:23:39;8.60;84.10
26099;DHT22;13860;52.370;6.764;2023-02-03T18:26:49;8.50;84.10
26099;DHT22;13860;52.370;6.764;2023-02-03T18:29:53;8.50;84.10
26099;DHT22;13860;52.370;6.764;2023-02-03T18:32:59;8.50;84.10
26099;DHT22;13860;52.370;6.764;2023-02-03T18:36:05;8.50;84.80
26099;DHT22;13860;52.370;6.764;2023-02-03T18:39:12;8.50;84.20
26099;DHT22;13860;52.370;6.764;2023-02-03T18:42:19;8.50;84.20
26099;DHT22;13860;52.370;6.764;2023-02-03T18:45:25;8.50;84.20
26099;DHT22;13860;52.370;6.764;2023-02-03T18:48:30;8.40;84.20
26099;DHT22;13860;52.370;6.764;2023-02-03T18:51:36;8.40;84.20
26099;DHT22;13860;52.370;6.764;2023-02-03T18:54:40;8.40;84.20
26099;DHT22;13860;52.370;6.764;2023-02-03T18:57:48;8.40;84.20
26099;DHT22;13860;52.370;6.764;2023-02-03T19:00:52;8.40;84.20
26099;DHT22;13860;52.370;6.764;2023-02-03T19:04:00;8.40;84.80
26099;DHT22;13860;52.370;6.764;2023-02-03T19:07:04;8.40;84.30
26099;DHT22;13860;52.370;6.764;2023-02-03T19:10:10;8.40;84.20
26099;DHT22;13860;52.370;6.764;2023-02-03T19:13:16;8.40;84.30
26099;DHT22;13860;52.370;6.764;2023-02-03T19:16:22;8.40;84.30
26099;DHT22;13860;52.370;6.764;2023-02-03T19:19:26;8.30;84.30
26099;DHT22;13860;52.370;6.764;2023-02-03T19:22:32;8.40;84.30
26099;DHT22;13860;52.370;6.764;2023-02-03T19:25:36;8.40;84.40
26099;DHT22;13860;52.370;6.764;2023-02-03T19:28:44;8.40;84.30
26099;DHT22;13860;52.370;6.764;2023-02-03T19:31:48;8.30;84.30
26099;DHT22;13860;52.370;6.764;2023-02-03T19:34:54;8.30;84.30
26099;DHT22;13860;52.370;6.764;2023-02-03T19:37:58;8.30;84.30
26099;DHT22;13860;52.370;6.764;2023-02-03T19:41:04;8.30;84.30
26099;DHT22;13860;52.370;6.764;2023-02-03T19:44:12;8.30;84.30
26099;DHT22;13860;52.370;6.764;2023-02-03T19:47:18;8.30;84.30
26099;DHT22;13860;52.370;6.764;2023-02-03T19:50:22;8.30;84.30
26099;DHT22;13860;52.370;6.764;2023-02-03T19:53:28;8.30;84.30
26099;DHT22;13860;52.370;6.764;2023-02-03T19:56:31;8.30;84.30
26099;DHT22;13860;52.370;6.764;2023-02-03T19:59:39;8.40;84.40
26099;DHT22;13860;52.370;6.764;2023-02-03T20:02:43;8.40;84.30
26099;DHT22;13860;52.370;6.764;2023-02-03T20:05:49;8.30;84.30
26099;DHT22;13860;52.370;6.764;2023-02-03T20:08:54;8.40;85.00
26099;DHT22;13860;52.370;6.764;2023-02-03T20:12:01;8.40;84.40
26099;DHT22;13860;52.370;6.764;2023-02-03T20:15:07;8.40;84.40
26099;DHT22;13860;52.370;6.764;2023-02-03T20:18:13;8.40;84.40
26099;DHT22;13860;52.370;6.764;2023-02-03T20:21:17;8.40;84.40
26099;DHT22;13860;52.370;6.764;2023-02-03T20:24:23;8.40;84.40
26099;DHT22;13860;52.370;6.764;2023-02-03T20:27:27;8.40;84.40
26099;DHT22;13860;52.370;6.764;2023-02-03T20:30:35;8.40;84.40
26099;DHT22;13860;52.370;6.764;2023-02-03T20:33:39;8.30;84.40
26099;DHT22;13860;52.370;6.764;2023-02-03T20:36:45;8.30;84.40